Calliham, Texas
Current Conditions -  °F | °C
As of 6:16 PM on Sunday 21 Dec 2014 (Local Time) from KNMT Reporting Station
Broken Clouds Broken Clouds  
Wind Chill: 60°   Ceiling: 2900
Heat Index: 60°   Visibility: NA
Dew Point: 55°   Wind: 14mph
Humidity: 83%   Direction: 120°ESE
Pressure: 29.87"   Gusts: NA
Location:  28.48°N, 98.35°W
Report Text: KNMT 220016Z AUTO 12012KT BKN029 16/13 A2987 RMK AO2 T01560128 PNO $
Loading
Personal Weather Stations






























Interactive Weather Map New forecast layout! Learn more

10-Day Weather Forecast

Advertisements
Track Severe Weather on mobile